Time;durP1;ratioP1;P1;durP2;ratioP2;P2;SDS_P1;SDS_P2;PMS_P1;PMS_P2;Temp;Humidity;BMP_temperature;BMP_pressure;BME280_temperature;BME280_humidity;BME280_pressure;Samples;Min_cycle;Max_cycle;Signal;HPM_P1;HPM_P2
2021/07/26 00:00:03;;;;;;;22.92;15.38;;;;;;;20.37;66.43;101156.34;5040762;28;20021;-72
2021/07/26 00:02:28;;;;;;;21.50;16.08;;;;;;;20.31;66.93;101156.75;5040352;28;20151;-72
2021/07/26 00:04:54;;;;;;;22.55;14.48;;;;;;;20.33;66.60;101152.63;5034179;28;20021;-72
2021/07/26 00:07:19;;;;;;;19.60;15.65;;;;;;;20.30;66.50;101155.94;5041469;28;20480;-72
2021/07/26 00:09:45;;;;;;;22.02;15.00;;;;;;;20.21;67.13;101153.13;5041322;28;20218;-72
2021/07/26 00:12:10;;;;;;;20.38;15.50;;;;;;;20.10;67.68;101148.97;5026187;28;20115;-73
2021/07/26 00:14:36;;;;;;;22.42;14.52;;;;;;;19.98;68.58;101151.41;5040156;28;20096;-72
2021/07/26 00:17:01;;;;;;;20.60;14.75;;;;;;;19.77;70.15;101156.41;5041444;28;20088;-72
2021/07/26 00:19:27;;;;;;;23.85;15.30;;;;;;;19.65;70.54;101147.13;5037374;28;20036;-73
2021/07/26 00:21:53;;;;;;;18.40;14.55;;;;;;;19.78;69.52;101151.78;5040871;28;20032;-72
2021/07/26 00:24:18;;;;;;;21.10;14.85;;;;;;;19.83;69.07;101155.22;5037999;28;20027;-72
2021/07/26 00:26:44;;;;;;;22.13;15.38;;;;;;;19.85;69.02;101152.19;5037159;28;20021;-72
2021/07/26 00:29:10;;;;;;;18.95;15.07;;;;;;;19.77;69.61;101150.97;5039683;28;20418;-73
2021/07/26 00:31:35;;;;;;;22.48;15.75;;;;;;;19.74;69.70;101151.56;5038846;28;20028;-73
2021/07/26 00:34:18;;;;;;;23.42;15.90;;;;;;;19.77;69.06;101152.91;5041554;28;20574;-72
2021/07/26 00:36:49;;;;;;;25.23;17.35;;;;;;;19.81;68.88;101146.56;5037826;28;20266;-72
2021/07/26 00:39:19;;;;;;;23.85;16.27;;;;;;;19.83;68.67;101149.78;5023796;28;20029;-72
2021/07/26 00:41:47;;;;;;;21.50;16.23;;;;;;;19.70;69.74;101153.28;5036874;28;20159;-72
2021/07/26 00:44:13;;;;;;;22.83;16.05;;;;;;;19.59;70.45;101151.84;5041396;28;20409;-72
2021/07/26 00:46:38;;;;;;;22.98;16.25;;;;;;;19.49;71.18;101150.06;5039756;28;20028;-72
2021/07/26 00:49:07;;;;;;;21.42;16.05;;;;;;;19.49;71.25;101143.84;5041006;28;20409;-73
2021/07/26 00:51:34;;;;;;;19.10;15.52;;;;;;;19.56;70.32;101150.50;5036910;28;20471;-73
2021/07/26 00:53:59;;;;;;;19.58;15.27;;;;;;;19.58;70.14;101144.81;5040777;28;20056;-72
2021/07/26 00:56:25;;;;;;;24.75;16.80;;;;;;;19.56;70.17;101147.78;5041065;28;20126;-73
2021/07/26 00:58:51;;;;;;;21.27;15.60;;;;;;;19.50;70.71;101150.88;5044876;28;20708;-72
2021/07/26 01:01:17;;;;;;;21.60;15.88;;;;;;;19.54;70.02;101147.28;5028656;28;20032;-72
2021/07/26 01:03:44;;;;;;;20.27;16.38;;;;;;;19.58;69.72;101151.03;5042349;28;20052;-72
2021/07/26 01:06:12;;;;;;;23.05;16.95;;;;;;;19.52;69.71;101146.75;5027342;28;20024;-72
2021/07/26 01:08:37;;;;;;;18.55;15.63;;;;;;;19.51;70.03;101147.84;5043643;28;20116;-72
2021/07/26 01:11:04;;;;;;;23.52;17.45;;;;;;;19.41;71.01;101148.03;5024085;28;20163;-72
2021/07/26 01:13:30;;;;;;;22.30;16.38;;;;;;;19.42;70.45;101149.66;5042656;28;20500;-72
2021/07/26 01:15:56;;;;;;;20.55;16.75;;;;;;;19.39;70.67;101139.38;5044128;28;20017;-72
2021/07/26 01:18:25;;;;;;;21.02;16.20;;;;;;;19.35;70.91;101138.34;5044432;28;20029;-72
2021/07/26 01:21:14;;;;;;;24.23;18.08;;;;;;;19.20;71.67;101139.41;5043579;28;20407;-72
2021/07/26 01:23:43;;;;;;;26.92;16.83;;;;;;;19.21;71.44;101138.31;5040993;28;20656;-73
2021/07/26 01:26:11;;;;;;;22.00;16.83;;;;;;;19.22;71.51;101141.84;5044808;28;20430;-73
2021/07/26 01:28:39;;;;;;;22.65;17.48;;;;;;;19.19;72.18;101142.41;5040092;28;20048;-73
2021/07/26 01:31:05;;;;;;;25.17;17.50;;;;;;;19.16;72.32;101148.44;5043882;28;20029;-72
2021/07/26 01:33:32;;;;;;;23.13;17.50;;;;;;;19.00;74.00;101142.44;5028323;28;20021;-73
2021/07/26 01:35:57;;;;;;;21.80;15.90;;;;;;;19.10;72.79;101141.47;5034889;28;20025;-72
2021/07/26 01:38:23;;;;;;;32.90;18.05;;;;;;;19.09;72.60;101135.25;5042729;28;20029;-73
2021/07/26 01:40:53;;;;;;;27.13;16.17;;;;;;;19.09;72.13;101139.88;5028690;28;20172;-72
2021/07/26 01:43:20;;;;;;;23.70;17.02;;;;;;;19.07;72.29;101142.09;5043173;28;20040;-72
2021/07/26 01:46:00;;;;;;;23.10;15.95;;;;;;;19.04;72.14;101137.25;5027691;28;20025;-72
2021/07/26 01:48:45;;;;;;;19.80;16.25;;;;;;;18.97;72.04;101140.31;5044077;28;20082;-73
2021/07/26 01:51:28;;;;;;;19.88;16.92;;;;;;;18.93;72.16;101131.16;5042936;28;20024;-72
2021/07/26 01:53:54;;;;;;;22.27;17.10;;;;;;;18.94;72.47;101133.56;5044584;28;20561;-72
2021/07/26 01:56:20;;;;;;;22.20;16.55;;;;;;;18.93;72.49;101131.94;5040415;28;20029;-72
2021/07/26 01:58:45;;;;;;;23.00;16.73;;;;;;;18.92;72.71;101135.78;5040863;28;20060;-72
2021/07/26 02:01:11;;;;;;;23.40;18.58;;;;;;;18.69;75.47;101142.09;5041503;28;20086;-72
2021/07/26 02:03:36;;;;;;;25.55;18.02;;;;;;;18.61;75.59;101145.41;5023626;28;20228;-72
2021/07/26 02:06:02;;;;;;;22.92;17.75;;;;;;;18.45;77.39;101146.69;5027167;28;20249;-73
2021/07/26 02:08:27;;;;;;;22.08;16.83;;;;;;;18.61;75.82;101137.25;5042197;28;20023;-72
2021/07/26 02:10:53;;;;;;;22.17;17.38;;;;;;;18.69;75.28;101140.19;5041392;28;20513;-72
2021/07/26 02:13:18;;;;;;;27.42;18.33;;;;;;;18.70;75.67;101147.22;5041597;28;20033;-72
2021/07/26 02:15:44;;;;;;;23.60;18.15;;;;;;;18.47;77.40;101149.94;5042465;28;20040;-72
2021/07/26 02:18:09;;;;;;;25.23;18.23;;;;;;;18.38;77.59;101145.16;5042341;28;20035;-72
2021/07/26 02:20:34;;;;;;;22.08;16.20;;;;;;;18.50;76.20;101147.47;5026526;28;20032;-72
2021/07/26 02:23:00;;;;;;;24.40;18.40;;;;;;;18.58;75.18;101144.09;5038302;28;20475;-72
2021/07/26 02:25:25;;;;;;;23.17;18.48;;;;;;;18.37;76.81;101140.03;5036326;28;20083;-72
2021/07/26 02:27:51;;;;;;;24.05;17.73;;;;;;;18.40;76.65;101144.88;5024511;28;20025;-72
2021/07/26 02:30:16;;;;;;;22.95;18.40;;;;;;;18.48;76.02;101149.63;5041259;28;20039;-72
2021/07/26 02:32:42;;;;;;;24.70;19.52;;;;;;;18.62;75.35;101157.88;5022670;28;20127;-72
2021/07/26 02:35:09;;;;;;;25.88;17.45;;;;;;;18.71;74.96;101158.88;5041523;28;20310;-72
2021/07/26 02:37:34;;;;;;;22.80;17.25;;;;;;;18.74;75.00;101154.78;5039322;28;20020;-72
2021/07/26 02:40:00;;;;;;;25.80;19.00;;;;;;;18.79;74.85;101157.41;5039353;28;20356;-72
2021/07/26 02:42:26;;;;;;;24.52;18.55;;;;;;;18.82;74.58;101154.09;5041063;28;20037;-72
2021/07/26 02:44:51;;;;;;;23.27;17.35;;;;;;;18.83;74.63;101156.53;5041125;28;20044;-72
2021/07/26 02:47:17;;;;;;;22.73;17.30;;;;;;;18.86;74.26;101158.69;5023374;28;20021;-72
2021/07/26 02:49:43;;;;;;;21.85;17.77;;;;;;;18.84;74.32;101151.91;5038573;28;20025;-72
2021/07/26 02:52:08;;;;;;;22.48;17.60;;;;;;;18.86;73.87;101155.97;5037371;28;20026;-72
2021/07/26 02:54:34;;;;;;;24.35;18.05;;;;;;;18.88;74.34;101161.09;5040590;28;20036;-72
2021/07/26 02:56:59;;;;;;;21.00;17.05;;;;;;;18.89;74.34;101152.66;5041024;28;20068;-72
2021/07/26 02:59:25;;;;;;;21.77;17.45;;;;;;;18.91;74.38;101141.50;5038828;28;20056;-72
2021/07/26 03:01:51;;;;;;;20.40;16.15;;;;;;;18.91;74.21;101145.03;5040467;28;20037;-72
2021/07/26 03:04:17;;;;;;;25.92;17.30;;;;;;;18.92;74.34;101146.63;5037584;28;20060;-72
2021/07/26 03:06:43;;;;;;;24.45;18.45;;;;;;;18.95;74.38;101143.31;5025269;28;20554;-72
2021/07/26 03:09:09;;;;;;;24.60;19.67;;;;;;;18.73;76.41;101140.41;5043300;28;20033;-73
2021/07/26 03:11:36;;;;;;;24.73;19.30;;;;;;;18.41;78.64;101146.47;5038972;28;20021;-72
2021/07/26 03:14:03;;;;;;;24.88;19.40;;;;;;;18.30;79.57;101150.41;5040018;28;20487;-73
2021/07/26 03:16:29;;;;;;;24.15;19.17;;;;;;;18.25;79.78;101148.56;5040071;28;20036;-72
2021/07/26 03:18:54;;;;;;;25.27;18.88;;;;;;;18.28;79.70;101153.41;5037859;28;20024;-72
2021/07/26 03:21:20;;;;;;;22.90;18.60;;;;;;;18.40;78.58;101153.81;5022902;28;20064;-72
2021/07/26 03:23:46;;;;;;;27.02;17.45;;;;;;;18.55;77.21;101150.09;5037104;28;20036;-73
2021/07/26 03:26:12;;;;;;;21.77;17.45;;;;;;;18.68;76.67;101154.03;5037936;28;20028;-73
2021/07/26 03:28:37;;;;;;;23.67;18.38;;;;;;;18.76;75.86;101155.28;5039698;28;20025;-72
2021/07/26 03:31:03;;;;;;;24.50;18.08;;;;;;;18.83;75.53;101158.44;5037390;22;20037;-55
2021/07/26 03:33:28;;;;;;;23.88;18.42;;;;;;;18.85;75.39;101165.22;5021314;28;20599;-56
2021/07/26 03:35:54;;;;;;;25.42;18.33;;;;;;;18.90;75.34;101161.59;5023077;28;20057;-55
2021/07/26 03:38:24;;;;;;;20.73;17.27;;;;;;;18.91;75.01;101164.03;5020094;28;20084;-54
2021/07/26 03:40:50;;;;;;;20.98;17.08;;;;;;;18.91;75.17;101161.31;5025810;28;20091;-54
2021/07/26 03:43:16;;;;;;;24.92;17.67;;;;;;;18.97;74.69;101171.00;5018475;28;20261;-55
2021/07/26 03:45:42;;;;;;;22.80;18.40;;;;;;;19.00;74.84;101183.16;5024444;28;20353;-55
2021/07/26 03:48:08;;;;;;;21.33;17.42;;;;;;;18.99;75.00;101179.63;5017499;28;20275;-56
2021/07/26 03:50:33;;;;;;;26.42;18.30;;;;;;;19.00;74.88;101178.53;5019913;28;20213;-55
2021/07/26 03:52:59;;;;;;;22.80;18.05;;;;;;;18.99;75.12;101176.13;5016611;28;20026;-55
2021/07/26 03:55:26;;;;;;;22.83;17.80;;;;;;;19.00;75.04;101178.53;5018762;28;20028;-55
2021/07/26 03:57:52;;;;;;;25.20;18.45;;;;;;;18.97;75.36;101172.91;5019857;28;20021;-56
2021/07/26 04:00:20;;;;;;;23.27;16.90;;;;;;;19.00;75.16;101162.25;5017068;28;20491;-54
2021/07/26 04:02:55;;;;;;;22.27;16.63;;;;;;;18.99;75.30;101168.78;5018990;28;20152;-55
2021/07/26 04:05:30;;;;;;;22.17;17.02;;;;;;;18.91;75.74;101158.59;5018971;28;20055;-55
2021/07/26 04:08:02;;;;;;;20.55;16.15;;;;;;;18.99;75.16;101157.13;5017325;28;20037;-55
2021/07/26 04:10:28;;;;;;;22.42;15.85;;;;;;;19.01;75.16;101161.16;5016230;28;20554;-55
2021/07/26 04:12:53;;;;;;;23.02;16.85;;;;;;;19.06;74.94;101157.56;5017329;28;20033;-55
2021/07/26 04:15:19;;;;;;;21.48;16.73;;;;;;;19.12;74.44;101167.25;4997677;28;20659;-53
2021/07/26 04:17:45;;;;;;;23.67;17.25;;;;;;;19.15;74.59;101165.84;5015460;28;20034;-54
2021/07/26 04:20:11;;;;;;;24.70;16.85;;;;;;;19.15;74.91;101160.41;5014665;28;20041;-55
2021/07/26 04:22:36;;;;;;;22.65;16.88;;;;;;;19.23;74.25;101170.63;5021972;28;20022;-55
2021/07/26 04:25:02;;;;;;;22.48;16.10;;;;;;;19.23;74.16;101170.63;5016215;28;20028;-55
2021/07/26 04:27:28;;;;;;;21.30;15.18;;;;;;;19.23;74.19;101168.72;5018359;28;20030;-55
2021/07/26 04:29:54;;;;;;;19.42;15.93;;;;;;;19.27;74.30;101174.34;5018391;28;20029;-56
2021/07/26 04:32:19;;;;;;;22.10;17.45;;;;;;;19.25;74.39;101169.22;5027087;28;20209;-56
2021/07/26 04:34:45;;;;;;;21.38;15.90;;;;;;;19.32;74.39;101176.97;5021659;28;20260;-54
2021/07/26 04:37:10;;;;;;;21.00;16.58;;;;;;;19.38;74.00;101172.25;5018009;28;20418;-55
2021/07/26 04:39:36;;;;;;;22.23;17.13;;;;;;;19.40;73.58;101168.16;5025482;28;20029;-55
2021/07/26 04:42:01;;;;;;;24.73;17.33;;;;;;;19.43;73.88;101169.50;5022914;28;20372;-55
2021/07/26 04:44:27;;;;;;;22.63;17.70;;;;;;;19.47;73.62;101171.31;5030596;28;20030;-54
2021/07/26 04:46:52;;;;;;;24.10;17.80;;;;;;;19.52;73.57;101171.22;5026442;28;20064;-56
2021/07/26 04:49:20;;;;;;;23.88;17.95;;;;;;;19.53;73.37;101158.44;5022200;28;20033;-56
2021/07/26 04:51:45;;;;;;;18.95;15.82;;;;;;;19.59;73.33;101160.00;5024225;28;20033;-55
2021/07/26 04:54:10;;;;;;;26.20;16.98;;;;;;;19.68;73.15;101165.53;5020306;28;20028;-55
2021/07/26 04:56:36;;;;;;;21.27;16.27;;;;;;;19.72;72.95;101172.81;5022171;28;20026;-56
2021/07/26 04:59:01;;;;;;;21.92;16.60;;;;;;;19.82;72.75;101174.53;5021351;28;20028;-54
2021/07/26 05:01:27;;;;;;;23.55;16.75;;;;;;;19.94;72.30;101169.44;5018263;28;20076;-55
2021/07/26 05:03:52;;;;;;;21.63;16.15;;;;;;;20.01;72.60;101166.31;5027656;28;20116;-56
2021/07/26 05:06:19;;;;;;;17.95;15.48;;;;;;;20.11;72.13;101172.38;5025693;28;20079;-55
2021/07/26 05:08:44;;;;;;;22.63;15.88;;;;;;;20.18;72.21;101174.69;5022179;28;20055;-55
2021/07/26 05:11:10;;;;;;;19.60;15.25;;;;;;;20.38;71.39;101170.75;5025430;28;20423;-55
2021/07/26 05:13:35;;;;;;;18.52;14.38;;;;;;;20.56;70.80;101175.28;5022834;28;20081;-56
2021/07/26 05:16:01;;;;;;;19.70;15.50;;;;;;;20.71;70.42;101172.25;5021442;28;20030;-56
2021/07/26 05:18:26;;;;;;;20.08;15.57;;;;;;;20.93;70.05;101170.69;5020891;28;20029;-55
2021/07/26 05:20:52;;;;;;;20.13;15.40;;;;;;;21.08;69.26;101171.13;5023621;28;20079;-56
2021/07/26 05:23:17;;;;;;;17.63;13.90;;;;;;;21.25;68.63;101172.44;5022298;28;20029;-56
2021/07/26 05:25:44;;;;;;;22.00;15.45;;;;;;;21.42;68.03;101173.34;5025072;28;20107;-56
2021/07/26 05:28:10;;;;;;;20.15;14.90;;;;;;;21.65;67.37;101165.16;5025647;28;20034;-56
2021/07/26 05:30:35;;;;;;;17.63;13.88;;;;;;;21.80;66.83;101159.28;5020829;28;20080;-55
2021/07/26 05:33:01;;;;;;;19.02;13.85;;;;;;;22.05;66.08;101171.47;5021440;28;20087;-56
2021/07/26 05:35:26;;;;;;;21.73;15.20;;;;;;;22.28;65.41;101161.28;5016461;28;20483;-56
2021/07/26 05:37:51;;;;;;;18.77;14.05;;;;;;;22.49;64.60;101165.03;5018011;28;20410;-56
2021/07/26 05:40:17;;;;;;;21.50;14.10;;;;;;;22.54;65.11;101158.63;5018315;28;20030;-56
2021/07/26 05:42:43;;;;;;;19.17;14.55;;;;;;;22.42;64.68;101161.94;5023829;28;20025;-56
2021/07/26 05:45:09;;;;;;;20.63;14.55;;;;;;;22.66;64.40;101164.28;5021692;28;20044;-56
2021/07/26 05:47:34;;;;;;;18.40;14.00;;;;;;;22.82;63.41;101162.72;5020286;28;20025;-55
2021/07/26 05:50:00;;;;;;;21.17;14.82;;;;;;;22.90;62.15;101167.38;5018800;28;20152;-54
2021/07/26 05:52:25;;;;;;;17.55;13.23;;;;;;;22.90;61.75;101159.16;5016719;28;20539;-55
2021/07/26 05:54:51;;;;;;;17.08;13.60;;;;;;;23.02;61.26;101168.66;5019692;28;20052;-55
2021/07/26 05:57:18;;;;;;;17.23;14.07;;;;;;;23.10;61.62;101165.13;5017602;28;20093;-55
2021/07/26 05:59:44;;;;;;;19.42;13.90;;;;;;;23.16;60.95;101178.31;5021599;28;20036;-56
2021/07/26 06:02:10;;;;;;;16.98;12.85;;;;;;;23.18;60.30;101170.59;5017197;28;20021;-56
2021/07/26 06:04:35;;;;;;;19.13;13.73;;;;;;;23.16;60.56;101172.03;5016499;28;20498;-56
2021/07/26 06:07:01;;;;;;;17.77;13.13;;;;;;;23.19;60.44;101172.19;5021196;28;20025;-56
2021/07/26 06:09:26;;;;;;;16.80;13.60;;;;;;;23.26;60.28;101174.44;5016248;28;20531;-56
2021/07/26 06:11:53;;;;;;;17.60;13.75;;;;;;;23.24;60.71;101178.63;5021494;28;20051;-55
2021/07/26 06:14:19;;;;;;;15.77;13.57;;;;;;;23.29;60.68;101170.25;5018014;28;20029;-56
2021/07/26 06:16:53;;;;;;;16.48;13.77;;;;;;;23.29;60.84;101173.78;5019240;28;20036;-56
2021/07/26 06:19:19;;;;;;;18.70;14.13;;;;;;;23.43;60.03;101179.88;5016489;28;20091;-54
2021/07/26 06:21:54;;;;;;;17.17;14.32;;;;;;;23.42;60.13;101189.22;5017159;28;20350;-55
2021/07/26 06:24:23;;;;;;;19.10;14.27;;;;;;;23.48;60.14;101184.38;5019940;28;20040;-55
2021/07/26 06:26:50;;;;;;;22.30;15.00;;;;;;;23.47;60.15;101182.78;5017337;28;20032;-55
2021/07/26 06:29:15;;;;;;;21.88;14.13;;;;;;;23.50;60.02;101184.84;5021784;28;20029;-56
2021/07/26 06:31:43;;;;;;;18.95;13.80;;;;;;;23.63;60.01;101181.16;5016486;28;20365;-56
2021/07/26 06:34:09;;;;;;;18.17;13.68;;;;;;;23.80;60.21;101178.38;5018035;28;20136;-56
2021/07/26 06:36:39;;;;;;;19.40;13.90;;;;;;;23.88;60.66;101173.19;5016746;28;20443;-56
2021/07/26 06:39:05;;;;;;;17.33;14.55;;;;;;;24.00;59.90;101176.84;5021607;28;20447;-56
2021/07/26 06:41:31;;;;;;;18.30;15.13;;;;;;;24.05;59.46;101173.13;5018596;28;20040;-55
2021/07/26 06:43:57;;;;;;;16.17;14.00;;;;;;;24.10;59.56;101175.72;5018014;28;20029;-56
2021/07/26 06:46:23;;;;;;;17.92;13.60;;;;;;;24.20;59.18;101174.53;5018349;28;20025;-56
2021/07/26 06:48:48;;;;;;;26.48;15.57;;;;;;;24.26;57.99;101178.69;5018199;28;20025;-56
2021/07/26 06:51:14;;;;;;;16.63;13.93;;;;;;;24.29;57.20;101181.59;5019613;28;20026;-56
2021/07/26 06:53:40;;;;;;;22.88;14.15;;;;;;;24.38;57.48;101184.28;5015378;28;20495;-56
2021/07/26 06:56:07;;;;;;;18.88;13.32;;;;;;;24.48;57.75;101174.91;5018315;28;20030;-56
2021/07/26 06:58:33;;;;;;;16.80;13.88;;;;;;;24.54;57.28;101166.16;5020564;28;20475;-56
2021/07/26 07:01:06;;;;;;;16.42;13.43;;;;;;;24.53;56.85;101161.81;5015962;28;20026;-54
2021/07/26 07:03:32;;;;;;;16.70;14.27;;;;;;;24.59;56.96;101160.47;5016263;28;20120;-56
2021/07/26 07:06:05;;;;;;;18.48;14.55;;;;;;;24.86;56.84;101163.84;5018065;28;20355;-54
2021/07/26 07:08:31;;;;;;;19.40;13.90;;;;;;;25.07;55.99;101158.38;5017501;28;20108;-56
2021/07/26 07:11:04;;;;;;;18.45;13.85;;;;;;;25.22;55.45;101165.97;5017467;28;20039;-56
2021/07/26 07:13:29;;;;;;;15.65;13.70;;;;;;;25.39;55.10;101167.75;5017057;28;20491;-56
2021/07/26 07:15:55;;;;;;;17.83;14.57;;;;;;;25.51;54.76;101171.34;5018244;28;20044;-56
2021/07/26 07:18:20;;;;;;;18.60;14.10;;;;;;;25.66;53.98;101177.31;5016208;28;20057;-56
2021/07/26 07:20:46;;;;;;;17.42;14.45;;;;;;;25.77;54.14;101168.34;5017921;28;20067;-56
2021/07/26 07:23:11;;;;;;;18.42;14.52;;;;;;;25.94;53.46;101174.78;5016189;28;20115;-56
2021/07/26 07:25:37;;;;;;;16.98;14.50;;;;;;;26.05;52.57;101174.00;5019513;28;20431;-56
2021/07/26 07:28:02;;;;;;;28.52;14.25;;;;;;;26.07;52.41;101179.94;5016075;28;20387;-56
2021/07/26 07:30:28;;;;;;;20.23;14.23;;;;;;;26.13;51.92;101178.56;5017486;28;20032;-56
2021/07/26 07:32:53;;;;;;;18.15;14.80;;;;;;;26.25;52.05;101180.53;5018396;28;20342;-56
2021/07/26 07:35:19;;;;;;;21.08;14.85;;;;;;;26.16;52.12;101177.88;5015316;28;20122;-56
2021/07/26 07:37:44;;;;;;;20.23;16.13;;;;;;;26.33;51.55;101176.03;5017975;28;20336;-56
2021/07/26 07:40:10;;;;;;;19.13;14.95;;;;;;;26.49;50.77;101175.03;5019019;28;20495;-56
2021/07/26 07:42:36;;;;;;;22.13;15.63;;;;;;;26.65;50.42;101172.38;5017194;28;20025;-56
2021/07/26 07:45:01;;;;;;;18.85;15.95;;;;;;;26.84;50.64;101170.97;5015402;28;20533;-56
2021/07/26 07:47:27;;;;;;;19.30;15.38;;;;;;;26.99;51.26;101159.22;5017226;28;20068;-56
2021/07/26 07:49:53;;;;;;;24.50;14.80;;;;;;;27.23;50.60;101156.41;5019419;28;20048;-56
2021/07/26 07:52:18;;;;;;;20.63;15.50;;;;;;;27.44;50.34;101169.13;5022131;28;20119;-56
2021/07/26 07:54:44;;;;;;;19.58;15.55;;;;;;;27.69;49.35;101165.13;5018031;28;20072;-56
2021/07/26 07:57:09;;;;;;;17.92;15.23;;;;;;;27.81;49.26;101170.53;5016114;28;20032;-56
2021/07/26 07:59:35;;;;;;;20.45;16.02;;;;;;;28.00;47.99;101165.13;5016879;28;20262;-56
2021/07/26 08:02:05;;;;;;;20.02;15.00;;;;;;;28.23;47.52;101170.03;5015501;28;20056;-55
2021/07/26 08:04:31;;;;;;;18.85;14.95;;;;;;;28.27;46.95;101170.94;5014448;28;20060;-56
2021/07/26 08:06:56;;;;;;;18.33;14.48;;;;;;;28.44;46.96;101165.03;5016796;28;20422;-56
2021/07/26 08:09:22;;;;;;;20.38;15.13;;;;;;;27.65;47.89;101164.25;5017003;28;20024;-57
2021/07/26 08:11:47;;;;;;;18.80;14.80;;;;;;;28.10;48.09;101163.00;5016927;28;20025;-56
2021/07/26 08:14:13;;;;;;;17.45;15.65;;;;;;;28.70;46.57;101169.13;5017194;28;20095;-56
2021/07/26 08:16:38;;;;;;;20.13;15.43;;;;;;;28.85;45.38;101160.00;5016936;28;20034;-57
2021/07/26 08:19:04;;;;;;;22.08;15.95;;;;;;;28.85;45.37;101160.00;5017936;28;20068;-56
2021/07/26 08:21:29;;;;;;;19.52;15.52;;;;;;;29.04;45.62;101157.28;5016595;28;20033;-57
2021/07/26 08:23:55;;;;;;;17.88;14.43;;;;;;;28.97;45.01;101161.84;5016170;28;20410;-56
2021/07/26 08:26:21;;;;;;;19.83;16.55;;;;;;;28.87;44.23;101157.72;5016732;28;20563;-57
2021/07/26 08:28:47;;;;;;;20.20;14.75;;;;;;;28.91;43.98;101158.59;5020737;28;20041;-57
2021/07/26 08:31:13;;;;;;;18.48;15.63;;;;;;;29.13;44.29;101157.88;5014695;28;20080;-56
2021/07/26 08:33:38;;;;;;;20.77;15.68;;;;;;;29.23;43.92;101156.47;5017546;28;20528;-55
2021/07/26 08:36:04;;;;;;;18.17;15.32;;;;;;;29.02;43.88;101164.31;5015667;28;20463;-56
2021/07/26 08:38:29;;;;;;;22.27;14.77;;;;;;;29.10;43.96;101160.56;5016354;28;20427;-55
2021/07/26 08:40:54;;;;;;;20.00;14.95;;;;;;;29.17;44.24;101160.69;5016052;28;20063;-56
2021/07/26 08:43:23;;;;;;;22.50;15.35;;;;;;;28.95;44.12;101159.47;5015345;28;20470;-56
2021/07/26 08:45:49;;;;;;;22.48;15.40;;;;;;;29.34;44.20;101154.72;5015853;28;20035;-56
2021/07/26 08:48:14;;;;;;;22.33;14.82;;;;;;;29.62;44.29;101154.44;5016090;28;20394;-55
2021/07/26 08:50:42;;;;;;;17.33;14.70;;;;;;;29.62;42.29;101148.94;5017404;28;20497;-56
2021/07/26 08:53:09;;;;;;;19.33;14.60;;;;;;;28.75;45.19;101153.13;5017321;28;20376;-57
2021/07/26 08:55:35;;;;;;;18.30;14.30;;;;;;;29.38;43.67;101154.78;5016058;28;20022;-56
2021/07/26 08:58:02;;;;;;;16.35;14.25;;;;;;;29.80;41.89;101154.75;5013862;28;20060;-56
2021/07/26 09:00:27;;;;;;;16.83;14.77;;;;;;;30.01;43.39;101148.81;5014467;28;20037;-56
2021/07/26 09:02:54;;;;;;;17.25;14.73;;;;;;;30.05;43.01;101146.94;5019164;28;20403;-56
2021/07/26 09:05:20;;;;;;;16.30;13.23;;;;;;;29.99;42.00;101156.69;5014797;28;20025;-57
2021/07/26 09:07:48;;;;;;;20.38;13.80;;;;;;;29.83;41.97;101153.25;5017163;28;20026;-55
2021/07/26 09:10:23;;;;;;;17.48;14.55;;;;;;;29.69;41.49;101142.75;5014678;28;20022;-57
2021/07/26 09:12:50;;;;;;;17.50;14.35;;;;;;;30.07;42.52;101142.63;5017260;28;20036;-56
2021/07/26 09:15:16;;;;;;;15.65;13.07;;;;;;;30.31;41.79;101141.38;5014034;28;20025;-57
2021/07/26 09:17:45;;;;;;;15.80;12.85;;;;;;;30.58;41.68;101144.16;5019911;28;20391;-55
2021/07/26 09:20:13;;;;;;;23.60;12.73;;;;;;;30.84;42.09;101146.06;5017593;28;20021;-57
2021/07/26 09:22:41;;;;;;;15.27;11.45;;;;;;;30.81;39.74;101133.81;5018876;28;20133;-56
2021/07/26 09:25:10;;;;;;;13.65;12.18;;;;;;;30.96;40.71;101134.78;5024331;28;20021;-56
2021/07/26 09:27:36;;;;;;;13.27;11.93;;;;;;;31.28;39.79;101149.00;5021130;28;20367;-56
2021/07/26 09:30:16;;;;;;;13.48;11.93;;;;;;;31.40;39.24;101145.94;5018779;28;20033;-57
2021/07/26 09:32:42;;;;;;;14.18;12.50;;;;;;;31.55;39.14;101139.38;5020481;28;20032;-57
2021/07/26 09:35:08;;;;;;;13.90;12.32;;;;;;;31.51;38.63;101135.78;5018250;28;20029;-57
2021/07/26 09:37:36;;;;;;;16.23;12.45;;;;;;;31.73;38.94;101136.00;5018202;28;20033;-56
2021/07/26 09:40:21;;;;;;;17.92;13.40;;;;;;;31.85;36.91;101141.25;5018604;28;20029;-57
2021/07/26 09:42:47;;;;;;;15.35;11.57;;;;;;;31.74;36.81;101129.28;5020416;28;20055;-55
2021/07/26 09:45:23;;;;;;;13.23;11.82;;;;;;;31.60;36.81;101134.66;5073963;22;20032;-87
2021/07/26 09:48:04;;;;;;;14.73;12.40;;;;;;;31.68;38.72;101133.56;5061196;28;20024;-88
2021/07/26 09:50:40;;;;;;;14.38;12.65;;;;;;;31.49;36.96;101134.56;5080519;28;20028;-88
2021/07/26 09:53:10;;;;;;;16.27;13.15;;;;;;;31.55;36.03;101142.13;5071245;28;20031;-88
2021/07/26 09:55:36;;;;;;;13.60;11.70;;;;;;;31.18;37.53;101133.06;5053456;28;20104;-87
2021/07/26 09:58:04;;;;;;;14.70;13.20;;;;;;;31.41;37.75;101130.13;5067166;28;20036;-88
2021/07/26 10:00:30;;;;;;;13.88;12.40;;;;;;;31.48;36.94;101130.22;5055810;28;20028;-87
2021/07/26 10:02:56;;;;;;;17.23;12.38;;;;;;;31.54;36.13;101123.13;5063423;28;20486;-89
2021/07/26 10:05:29;;;;;;;11.73;10.52;;;;;;;31.94;37.00;101130.63;5054655;28;20563;-89
2021/07/26 10:07:54;;;;;;;15.32;11.95;;;;;;;31.92;34.84;101127.44;5061846;28;20024;-90
2021/07/26 10:10:21;;;;;;;19.75;11.52;;;;;;;31.40;36.72;101123.78;5065470;28;20032;-89
2021/07/26 10:12:50;;;;;;;15.60;11.45;;;;;;;31.50;36.52;101133.41;5064368;28;20559;-88
2021/07/26 10:15:18;;;;;;;15.00;11.00;;;;;;;31.78;35.47;101139.22;5053564;28;20052;-87
2021/07/26 10:17:45;;;;;;;14.02;11.70;;;;;;;32.02;34.68;101140.59;5069478;28;20054;-89
2021/07/26 10:20:14;;;;;;;13.60;10.48;;;;;;;31.62;34.99;101143.41;5058724;28;20078;-88
2021/07/26 10:22:41;;;;;;;15.07;11.32;;;;;;;31.68;35.28;101133.56;5062427;28;20048;-88
2021/07/26 10:25:19;;;;;;;12.68;11.40;;;;;;;30.90;34.72;101137.09;5061855;28;20029;-88
2021/07/26 10:27:46;;;;;;;14.52;11.63;;;;;;;31.23;35.54;101135.47;5073943;28;20101;-88
2021/07/26 10:30:30;;;;;;;14.23;11.82;;;;;;;31.73;36.20;101127.69;5053650;28;20027;-89
2021/07/26 10:33:00;;;;;;;14.43;11.07;;;;;;;31.93;33.33;101125.47;5058556;28;20478;-88
2021/07/26 10:35:48;;;;;;;12.40;10.95;;;;;;;31.68;34.41;101133.56;5058317;28;20032;-87
2021/07/26 10:38:14;;;;;;;13.02;10.65;;;;;;;31.43;34.09;101134.13;5065526;28;20499;-88
2021/07/26 10:40:42;;;;;;;12.95;10.95;;;;;;;31.21;33.87;101124.00;5056016;28;20064;-88
2021/07/26 10:43:13;;;;;;;12.15;10.88;;;;;;;31.44;33.18;101130.19;5062589;28;20016;-86
2021/07/26 10:45:55;;;;;;;10.90;9.80;;;;;;;31.21;33.74;101116.50;5053436;28;20043;-89
2021/07/26 10:48:27;;;;;;;14.68;11.20;;;;;;;31.70;34.32;101118.13;5078782;28;20025;-89
2021/07/26 10:50:54;;;;;;;13.95;10.27;;;;;;;32.04;33.98;101120.81;5059349;28;20032;-88
2021/07/26 10:53:32;;;;;;;12.70;10.52;;;;;;;32.22;32.46;101105.09;5057287;28;20097;-88
2021/07/26 10:56:08;;;;;;;11.98;10.20;;;;;;;32.45;31.99;101113.16;5074168;28;20020;-89
2021/07/26 10:58:40;;;;;;;13.77;10.68;;;;;;;32.61;32.22;101110.84;5047736;28;20025;-87
2021/07/26 11:01:20;;;;;;;11.88;10.25;;;;;;;32.79;30.52;101118.47;5048113;28;20031;-88
2021/07/26 11:03:47;;;;;;;15.25;10.60;;;;;;;32.96;31.32;101112.22;5051969;28;20031;-88
2021/07/26 11:06:40;;;;;;;11.65;9.93;;;;;;;32.89;30.81;101112.19;5059865;28;20523;-89
2021/07/26 11:09:18;;;;;;;11.15;10.05;;;;;;;32.93;32.17;101104.66;5069088;28;20056;-89